Peoria Heights, Illinois
Current Conditions -  °F | °C
As of 12:54 AM on Friday 31 Oct 2014 (Local Time) from KPIA Reporting Station
Overcast Overcast  
Wind Chill: 46°   Ceiling: 6500
Heat Index: 46°   Visibility: 9mi
Dew Point: 41°   Wind: 3mph
Humidity: 83%   Direction: 320°NW
Pressure: 30.09"   Gusts: NA
Location:  40.7452°N, 89.5738°W
Report Text: KPIA 310554Z 32003KT 9SM OVC065 08/05 A3009 RMK AO2 SLP192 T00780050 10083 20072 401000017 51005
Loading
Personal Weather Stations






























Interactive Weather Map New forecast layout! Learn more

10-Day Weather Forecast

Advertisements
Track Severe Weather on mobile